Terminal Aerodrome Forecast
Issued by NWS Blacksburg, VA

Current Version | Previous Version | Text Only | Print | Product List | Glossary Off
Versions: 1 2 3 4 5 6 7 8 9 10 11 12 13 14 15

000
FTUS41 KRNK 190755 AAA
TAFBLF
TAF AMD
KBLF 190755Z 1908/2006 30008G18KT P6SM OVC018
      TEMPO 1908/1911 4SM -SHRA OVC010
     FM191600 30015G25KT P6SM OVC025
     FM192200 30012G21KT P6SM OVC035=

USA.gov is the U.S. government's official web portal to all federal, state and local government web resources and services.